createdAt,value
2022-12-23T14:00:36.945Z,91.52
2022-12-23T14:03:13.825Z,91.41
2022-12-23T14:05:50.755Z,91.69
2022-12-23T14:08:32.190Z,91.86
2022-12-23T14:11:04.617Z,91.94
2022-12-23T14:14:18.169Z,92.08
2022-12-23T14:17:14.671Z,91.96
2022-12-23T14:20:14.762Z,91.80
2022-12-23T14:23:17.801Z,91.88
2022-12-23T14:26:21.307Z,91.93
2022-12-23T14:29:45.071Z,92.09
2022-12-23T14:32:42.418Z,91.88
2022-12-23T14:35:42.143Z,91.92
2022-12-23T14:38:16.686Z,91.66
2022-12-23T14:40:53.665Z,92.09
2022-12-23T14:43:26.628Z,91.79
2022-12-23T14:46:10.541Z,91.77
2022-12-23T14:49:37.606Z,91.91
2022-12-23T14:52:07.890Z,92.04
2022-12-23T14:54:55.104Z,91.82
2022-12-23T14:57:46.427Z,92.17
2022-12-23T15:00:21.503Z,92.14
2022-12-23T15:02:57.734Z,92.06
2022-12-23T15:05:30.373Z,91.98
2022-12-23T15:08:05.638Z,92.17
2022-12-23T15:10:40.139Z,92.06
2022-12-23T15:13:15.996Z,92.19
2022-12-23T15:16:02.532Z,92.18
2022-12-23T15:18:37.925Z,92.03
2022-12-23T15:21:12.601Z,92.04
2022-12-23T15:24:32.234Z,91.95
2022-12-23T15:29:59.714Z,91.99
2022-12-23T15:32:45.565Z,92.32
2022-12-23T15:35:34.603Z,92.07
2022-12-23T15:38:07.541Z,92.24
2022-12-23T15:40:47.591Z,92.27
2022-12-23T15:43:23.551Z,92.25
2022-12-23T15:45:59.120Z,92.37
2022-12-23T15:48:35.544Z,92.21
2022-12-23T15:51:50.107Z,94.05
2022-12-23T15:54:49.590Z,74.29
2022-12-23T15:57:28.443Z,60.71
2022-12-23T16:00:12.326Z,69.56
2022-12-23T16:03:01.838Z,76.97
2022-12-23T16:05:44.950Z,82.09
2022-12-23T16:08:35.709Z,84.37
2022-12-23T16:11:24.042Z,86.03
2022-12-23T16:14:01.930Z,86.92
